createdAt,value
2018-12-21T00:00:22.065Z,98357.60
2018-12-21T00:02:50.554Z,98356.05
2018-12-21T00:05:19.389Z,98368.98
2018-12-21T00:07:47.838Z,98371.70
2018-12-21T00:10:16.478Z,98373.59
2018-12-21T00:12:45.532Z,98365.52
2018-12-21T00:15:14.086Z,98363.67
2018-12-21T00:17:42.549Z,98365.43
2018-12-21T00:20:11.217Z,98366.88
2018-12-21T00:22:40.529Z,98360.91
2018-12-21T00:25:09.054Z,98362.96
2018-12-21T00:27:37.822Z,98367.03
2018-12-21T00:30:09.061Z,98363.33
2018-12-21T00:32:42.757Z,98367.63
2018-12-21T00:35:16.533Z,98367.88
2018-12-21T00:37:50.417Z,98352.40
2018-12-21T00:40:24.011Z,98358.81
2018-12-21T00:42:57.602Z,98356.26
2018-12-21T00:45:31.247Z,98348.77
2018-12-21T00:47:59.893Z,98349.70
2018-12-21T00:50:29.594Z,98357.41
2018-12-21T00:52:58.145Z,98349.48
2018-12-21T00:55:26.619Z,98338.77
2018-12-21T00:57:55.942Z,98356.30
2018-12-21T01:00:26.666Z,98354.20
2018-12-21T01:02:55.154Z,98350.55
2018-12-21T01:05:23.598Z,98347.09
2018-12-21T01:07:52.129Z,98356.55
2018-12-21T01:10:20.618Z,98356.62
2018-12-21T01:12:49.329Z,98354.11
2018-12-21T01:15:18.323Z,98355.30
2018-12-21T01:17:46.817Z,98357.61
2018-12-21T01:20:15.482Z,98362.47
2018-12-21T01:22:43.973Z,98364.32
2018-12-21T01:25:12.445Z,98366.42
2018-12-21T01:27:40.921Z,98361.96
2018-12-21T01:30:09.782Z,98366.02
2018-12-21T01:32:38.445Z,98366.11
2018-12-21T01:35:07.237Z,98371.58
2018-12-21T01:37:35.729Z,98362.22
2018-12-21T01:40:04.469Z,98369.78
2018-12-21T01:42:32.953Z,98373.12
2018-12-21T01:45:01.454Z,98372.27
2018-12-21T01:47:29.946Z,98365.02
2018-12-21T01:49:58.414Z,98365.02
2018-12-21T01:52:26.894Z,98365.32
2018-12-21T01:54:55.488Z,98352.09
2018-12-21T01:57:24.105Z,98345.81
2018-12-21T01:59:52.583Z,98342.84
2018-12-21T02:02:21.078Z,98339.39
2018-12-21T02:04:49.545Z,98349.36
2018-12-21T02:07:18.836Z,98346.31
2018-12-21T02:09:47.294Z,98345.05
2018-12-21T02:12:15.786Z,98347.91
2018-12-21T02:14:44.310Z,98344.79
2018-12-21T02:17:12.774Z,98337.70
2018-12-21T02:19:41.210Z,98336.06
2018-12-21T02:22:09.922Z,98338.41
2018-12-21T02:24:38.492Z,98338.11
2018-12-21T02:27:07.086Z,98346.27
2018-12-21T02:29:35.540Z,98343.89
2018-12-21T02:32:04.157Z,98345.59
2018-12-21T02:34:32.653Z,98341.86
2018-12-21T02:37:01.151Z,98337.54
2018-12-21T02:39:29.683Z,98343.20
2018-12-21T02:41:58.194Z,98343.62
2018-12-21T02:44:26.769Z,98338.48
2018-12-21T02:46:55.627Z,98328.45
2018-12-21T02:49:24.229Z,98324.14
2018-12-21T02:51:52.729Z,98327.48
2018-12-21T02:54:21.211Z,98326.51
2018-12-21T02:56:49.695Z,98322.23
2018-12-21T02:59:18.233Z,98324.44
2018-12-21T03:01:46.708Z,98314.13
2018-12-21T03:04:15.493Z,98311.52
2018-12-21T03:06:44.068Z,98306.11
2018-12-21T03:09:12.680Z,98292.16
2018-12-21T03:11:47.777Z,98280.98
2018-12-21T03:14:16.225Z,98277.92
2018-12-21T03:16:44.787Z,98283.08
2018-12-21T03:19:13.538Z,98273.56
2018-12-21T03:21:42.013Z,98261.50
2018-12-21T03:24:10.654Z,98249.58
2018-12-21T03:26:39.235Z,98248.28
2018-12-21T03:29:07.717Z,98244.17
2018-12-21T03:31:36.311Z,98247.02
2018-12-21T03:34:04.930Z,98238.84
2018-12-21T03:36:33.419Z,98229.92
2018-12-21T03:39:04.048Z,98241.23
2018-12-21T03:41:32.770Z,98235.34
2018-12-21T03:44:01.565Z,98236.00
2018-12-21T03:46:30.053Z,98231.28
2018-12-21T03:48:58.584Z,98225.98
2018-12-21T03:51:27.065Z,98217.50
2018-12-21T03:53:55.562Z,98218.61
2018-12-21T03:56:24.150Z,98215.41
2018-12-21T03:58:52.641Z,98206.08
2018-12-21T04:01:21.286Z,98206.65
2018-12-21T04:03:49.816Z,98197.32
2018-12-21T04:06:18.309Z,98200.77
2018-12-21T04:08:47.417Z,98188.84
2018-12-21T04:11:15.920Z,98186.87
2018-12-21T04:13:44.363Z,98180.23
2018-12-21T04:16:12.869Z,98175.44
2018-12-21T04:18:41.315Z,98175.08
2018-12-21T04:21:10.087Z,98164.34
2018-12-21T04:23:38.604Z,98169.20
2018-12-21T04:26:07.162Z,98173.20
2018-12-21T04:28:35.603Z,98171.97
2018-12-21T04:31:04.178Z,98169.20
2018-12-21T04:33:32.656Z,98175.93
2018-12-21T04:36:01.152Z,98180.23
2018-12-21T04:38:29.779Z,98155.77
2018-12-21T04:40:58.251Z,98164.70
2018-12-21T04:43:26.798Z,98162.25
2018-12-21T04:45:55.313Z,98167.33
2018-12-21T04:48:23.893Z,98167.78
2018-12-21T04:50:52.471Z,98173.08
2018-12-21T04:53:21.082Z,98173.44
2018-12-21T04:55:49.774Z,98154.88
2018-12-21T04:58:18.859Z,98150.32
2018-12-21T05:00:47.367Z,98135.44
2018-12-21T05:03:16.024Z,98136.66
2018-12-21T05:05:44.533Z,98129.84
2018-12-21T05:08:13.224Z,98123.63
2018-12-21T05:10:41.678Z,98115.61
2018-12-21T05:13:10.208Z,98106.41
2018-12-21T05:15:38.774Z,98107.89
2018-12-21T05:18:07.240Z,98110.84
2018-12-21T05:20:35.726Z,98098.30
2018-12-21T05:23:04.195Z,98099.94
2018-12-21T05:25:32.681Z,98096.81
2018-12-21T05:28:01.132Z,98095.21
2018-12-21T05:30:29.702Z,98099.70
2018-12-21T05:32:58.878Z,98092.20
2018-12-21T05:35:27.620Z,98096.76
2018-12-21T05:37:56.415Z,98101.20
2018-12-21T05:40:25.002Z,98101.60
2018-12-21T05:42:53.637Z,98108.45
2018-12-21T05:45:22.344Z,98113.48
2018-12-21T05:47:53.574Z,98111.09
2018-12-21T05:50:23.300Z,98113.23
2018-12-21T05:52:52.017Z,98118.41
2018-12-21T05:55:22.437Z,98118.03
2018-12-21T05:57:51.013Z,98112.49
2018-12-21T06:00:22.402Z,98114.89
2018-12-21T06:02:51.709Z,98117.92
2018-12-21T06:05:22.036Z,98113.53
2018-12-21T06:07:52.599Z,98105.30
2018-12-21T06:10:21.187Z,98105.43
2018-12-21T06:12:49.726Z,98107.26
2018-12-21T06:15:18.213Z,98107.63
2018-12-21T06:17:46.663Z,98102.59
2018-12-21T06:20:15.195Z,98099.89
2018-12-21T06:22:43.761Z,98094.97
2018-12-21T06:25:12.610Z,98100.09
2018-12-21T06:27:41.167Z,98076.59
2018-12-21T06:30:09.679Z,98085.93
2018-12-21T06:32:40.028Z,98077.73
2018-12-21T06:35:08.735Z,98077.81
2018-12-21T06:37:37.350Z,98073.33
2018-12-21T06:40:06.835Z,98079.76
2018-12-21T06:42:35.961Z,98060.27
2018-12-21T06:45:05.802Z,98059.05
2018-12-21T06:47:34.858Z,98052.55
2018-12-21T06:50:03.500Z,98039.50
2018-12-21T06:52:32.025Z,98053.01
2018-12-21T06:55:00.522Z,98048.49
2018-12-21T06:57:29.029Z,98042.63
2018-12-21T06:59:57.635Z,98039.19
2018-12-21T07:02:26.194Z,98036.48
2018-12-21T07:04:55.446Z,98031.57
2018-12-21T07:07:25.478Z,98036.17
2018-12-21T07:09:53.990Z,98027.56
2018-12-21T07:12:22.550Z,98010.34
2018-12-21T07:14:51.214Z,98006.13
2018-12-21T07:17:19.710Z,98005.11
2018-12-21T07:19:48.296Z,97999.36
2018-12-21T07:22:16.838Z,98004.00
2018-12-21T07:24:45.406Z,97999.13
2018-12-21T07:27:14.159Z,97999.30
2018-12-21T07:29:42.679Z,97991.87
2018-12-21T07:32:11.291Z,97981.91
2018-12-21T07:34:39.762Z,97984.62
2018-12-21T07:37:08.249Z,97978.03
2018-12-21T07:39:36.734Z,97983.11
2018-12-21T07:42:05.258Z,97973.23
2018-12-21T07:44:33.907Z,97948.38
2018-12-21T07:47:02.512Z,97941.70
2018-12-21T07:49:31.035Z,97938.18
2018-12-21T07:51:59.618Z,97916.83
2018-12-21T07:54:29.346Z,97922.72
2018-12-21T07:56:57.910Z,97936.75
2018-12-21T07:59:26.521Z,97923.09
2018-12-21T08:01:55.561Z,97919.19
2018-12-21T08:04:24.133Z,97918.47
2018-12-21T08:06:52.614Z,97913.92
2018-12-21T08:09:21.076Z,97904.84
2018-12-21T08:11:49.638Z,97906.76
2018-12-21T08:14:18.997Z,97895.28
2018-12-21T08:16:47.475Z,97889.70
2018-12-21T08:19:17.233Z,97896.23
2018-12-21T08:21:45.738Z,97887.71
2018-12-21T08:24:14.650Z,97888.27
2018-12-21T08:26:43.133Z,97888.98
2018-12-21T08:29:11.720Z,97882.52
2018-12-21T08:31:40.891Z,97881.33
2018-12-21T08:34:10.401Z,97883.00
2018-12-21T08:36:39.422Z,97872.08
2018-12-21T08:39:08.267Z,97886.89
2018-12-21T08:41:36.793Z,97899.56
2018-12-21T08:44:05.319Z,97894.95
2018-12-21T08:46:34.675Z,97880.69
2018-12-21T08:49:03.219Z,97876.95
2018-12-21T08:51:31.774Z,97869.66
2018-12-21T08:54:00.294Z,97853.73
2018-12-21T08:56:29.490Z,97846.28
2018-12-21T08:58:58.550Z,97840.39
2018-12-21T09:01:27.048Z,97841.66
2018-12-21T09:03:55.637Z,97816.09
2018-12-21T09:06:24.086Z,97819.69
2018-12-21T09:08:53.061Z,97810.59
2018-12-21T09:11:21.598Z,97807.81
2018-12-21T09:13:50.097Z,97793.33
2018-12-21T09:16:18.555Z,97800.33
2018-12-21T09:18:47.506Z,97784.63
2018-12-21T09:21:15.965Z,97775.75
2018-12-21T09:23:44.423Z,97791.64
2018-12-21T09:26:12.882Z,97786.70
2018-12-21T09:28:42.067Z,97778.38
2018-12-21T09:31:10.658Z,97775.66
2018-12-21T09:33:39.129Z,97777.19
2018-12-21T09:36:07.715Z,97785.55
2018-12-21T09:38:36.322Z,97756.60
2018-12-21T09:41:04.906Z,97769.18
2018-12-21T09:43:33.478Z,97766.67
2018-12-21T09:46:02.278Z,97758.45
2018-12-21T09:48:30.749Z,97771.59
2018-12-21T09:50:59.200Z,97768.91
2018-12-21T09:53:27.686Z,97756.89
2018-12-21T09:55:56.167Z,97765.63
2018-12-21T09:58:24.770Z,97752.41
2018-12-21T10:00:53.330Z,97739.63
2018-12-21T10:03:21.997Z,97730.30
2018-12-21T10:05:50.535Z,97725.16
2018-12-21T10:08:19.782Z,97732.41
2018-12-21T10:10:50.515Z,97728.89
2018-12-21T10:13:18.771Z,97723.76
2018-12-21T10:15:47.220Z,97717.87
2018-12-21T10:18:15.783Z,97720.58
2018-12-21T10:20:45.215Z,97698.05
2018-12-21T10:23:13.756Z,97693.98
2018-12-21T10:25:42.237Z,97693.28
2018-12-21T10:28:11.377Z,97685.40
2018-12-21T10:30:39.826Z,97676.09
2018-12-21T10:33:08.460Z,97690.95
2018-12-21T10:35:36.931Z,97667.48
2018-12-21T10:38:05.772Z,97645.93
2018-12-21T10:40:34.325Z,97664.53
2018-12-21T10:43:02.881Z,97663.13
2018-12-21T10:45:31.466Z,97608.80
2018-12-21T10:48:00.165Z,97646.54
2018-12-21T10:50:28.856Z,97622.94
2018-12-21T10:52:57.361Z,97609.11
2018-12-21T10:55:25.927Z,97620.89
2018-12-21T10:57:54.482Z,97607.94
2018-12-21T11:00:23.797Z,97591.11
2018-12-21T11:02:52.269Z,97602.98
2018-12-21T11:05:20.718Z,97594.05
2018-12-21T11:07:49.218Z,97577.37
2018-12-21T11:10:17.665Z,97553.41
2018-12-21T11:12:46.254Z,97555.92
2018-12-21T11:15:14.834Z,97541.00
2018-12-21T11:17:44.149Z,97532.16
2018-12-21T11:20:12.913Z,97538.03
2018-12-21T11:22:42.062Z,97523.41
2018-12-21T11:25:12.677Z,97517.70
2018-12-21T11:27:41.171Z,97550.69
2018-12-21T11:30:09.863Z,97498.47
2018-12-21T11:32:38.355Z,97481.34
2018-12-21T11:35:07.019Z,97469.48
2018-12-21T11:37:36.220Z,97486.30
2018-12-21T11:40:05.378Z,97460.09
2018-12-21T11:42:33.937Z,97457.91
2018-12-21T11:45:02.465Z,97443.43
2018-12-21T11:47:30.997Z,97433.25
2018-12-21T11:49:59.482Z,97436.42
2018-12-21T11:52:27.981Z,97417.88
2018-12-21T11:54:56.449Z,97433.37
2018-12-21T11:57:25.158Z,97431.14
2018-12-21T11:59:53.702Z,97427.73
2018-12-21T12:02:22.191Z,97399.38
2018-12-21T12:04:50.694Z,97437.80
2018-12-21T12:07:19.172Z,97436.00
2018-12-21T12:09:47.699Z,97393.48
2018-12-21T12:12:16.276Z,97401.40
2018-12-21T12:14:44.731Z,97404.11
2018-12-21T12:17:13.240Z,97396.67
2018-12-21T12:19:41.685Z,97408.19
2018-12-21T12:22:10.167Z,97398.02
2018-12-21T12:24:38.641Z,97391.91
2018-12-21T12:27:07.191Z,97393.24
2018-12-21T12:29:35.661Z,97386.25
2018-12-21T12:32:04.287Z,97381.06
2018-12-21T12:34:32.748Z,97382.16
2018-12-21T12:37:01.207Z,97365.23
2018-12-21T12:39:29.975Z,97383.06
2018-12-21T12:41:58.438Z,97383.97
2018-12-21T12:44:26.920Z,97374.47
2018-12-21T12:46:55.929Z,97367.05
2018-12-21T12:49:24.504Z,97369.27
2018-12-21T12:51:53.078Z,97369.39
2018-12-21T12:54:21.743Z,97366.56
2018-12-21T12:56:50.349Z,97358.11
2018-12-21T12:59:19.070Z,97364.98
2018-12-21T13:01:47.854Z,97372.21
2018-12-21T13:04:17.035Z,97370.41
2018-12-21T13:06:45.676Z,97371.98
2018-12-21T13:09:14.138Z,97356.83
2018-12-21T13:11:42.604Z,97355.70
2018-12-21T13:14:11.178Z,97363.84
2018-12-21T13:16:39.654Z,97363.91
2018-12-21T13:19:08.103Z,97370.14
2018-12-21T13:21:36.898Z,97365.28
2018-12-21T13:24:05.338Z,97353.41
2018-12-21T13:26:33.847Z,97348.87
2018-12-21T13:29:03.450Z,97364.54
2018-12-21T13:31:32.110Z,97365.61
2018-12-21T13:34:00.942Z,97374.16
2018-12-21T13:36:29.531Z,97357.88
2018-12-21T13:38:58.085Z,97362.16
2018-12-21T13:41:27.090Z,97349.61
2018-12-21T13:43:55.545Z,97363.08
2018-12-21T13:46:24.070Z,97356.73
2018-12-21T13:48:52.545Z,97362.61
2018-12-21T13:51:21.730Z,97358.19
2018-12-21T13:53:50.516Z,97365.33
2018-12-21T13:56:19.566Z,97358.09
2018-12-21T13:58:48.850Z,97366.64
2018-12-21T14:01:17.338Z,97353.06
2018-12-21T14:03:45.929Z,97367.77
2018-12-21T14:06:14.859Z,97365.16
2018-12-21T14:08:43.344Z,97365.42
2018-12-21T14:11:11.877Z,97374.78
2018-12-21T14:13:40.358Z,97372.52
2018-12-21T14:16:08.890Z,97372.52
2018-12-21T14:18:37.943Z,97370.45
2018-12-21T14:21:06.467Z,97373.92
2018-12-21T14:23:34.926Z,97374.33
2018-12-21T14:26:03.426Z,97378.86
2018-12-21T14:28:32.033Z,97373.92
2018-12-21T14:31:00.611Z,97376.70
2018-12-21T14:33:29.066Z,97391.06
2018-12-21T14:35:58.126Z,97381.80
2018-12-21T14:38:26.763Z,97392.19
2018-12-21T14:40:55.270Z,97396.44
2018-12-21T14:43:24.074Z,97388.83
2018-12-21T14:45:53.142Z,97388.48
2018-12-21T14:48:21.600Z,97396.13
2018-12-21T14:50:50.166Z,97394.96
2018-12-21T14:53:18.626Z,97389.08
2018-12-21T14:55:47.113Z,97393.77
2018-12-21T14:58:15.589Z,97408.05
2018-12-21T15:00:44.082Z,97394.89
2018-12-21T15:03:12.632Z,97397.52
2018-12-21T15:05:41.166Z,97389.20
2018-12-21T15:08:09.730Z,97403.63
2018-12-21T15:10:38.266Z,97390.64
2018-12-21T15:13:06.711Z,97391.61
2018-12-21T15:15:35.422Z,97398.63
2018-12-21T15:18:03.999Z,97390.61
2018-12-21T15:20:33.346Z,97399.66
2018-12-21T15:23:02.008Z,97394.02
2018-12-21T15:25:30.521Z,97408.44
2018-12-21T15:27:58.979Z,97408.08
2018-12-21T15:30:27.850Z,97410.88
2018-12-21T15:32:56.435Z,97401.34
2018-12-21T15:35:25.699Z,97404.05
2018-12-21T15:37:54.792Z,97411.52
2018-12-21T15:40:23.422Z,97416.42
2018-12-21T15:42:52.224Z,97417.86
2018-12-21T15:45:21.080Z,97403.80
2018-12-21T15:47:49.558Z,97399.85
2018-12-21T15:50:18.822Z,97407.55
2018-12-21T15:52:47.327Z,97408.63
2018-12-21T15:55:15.856Z,97400.91
2018-12-21T15:57:45.136Z,97411.85
2018-12-21T16:00:16.770Z,97417.69
2018-12-21T16:02:48.644Z,97424.20
2018-12-21T16:05:17.232Z,97415.84
2018-12-21T16:07:45.794Z,97413.38
2018-12-21T16:10:14.458Z,97406.66
2018-12-21T16:12:42.958Z,97408.59
2018-12-21T16:15:11.541Z,97405.14
2018-12-21T16:17:40.333Z,97405.66
2018-12-21T16:20:13.145Z,97395.12
2018-12-21T16:22:42.590Z,97405.39
2018-12-21T16:25:11.551Z,97400.92
2018-12-21T16:27:40.113Z,97403.99
2018-12-21T16:30:11.541Z,97406.80
2018-12-21T16:32:40.094Z,97412.60
2018-12-21T16:35:09.026Z,97407.32
2018-12-21T16:37:37.616Z,97401.22
2018-12-21T16:40:10.187Z,97403.75
2018-12-21T16:42:39.671Z,97408.90
2018-12-21T16:45:11.095Z,97402.53
2018-12-21T16:47:40.452Z,97411.76
2018-12-21T16:50:14.136Z,97412.63
2018-12-21T16:52:43.059Z,97416.66
2018-12-21T16:55:14.268Z,97417.09
2018-12-21T16:57:45.120Z,97416.50
2018-12-21T17:00:14.635Z,97417.16
2018-12-21T17:02:43.154Z,97416.17
2018-12-21T17:05:12.629Z,97411.56
2018-12-21T17:07:42.293Z,97416.61
2018-12-21T17:10:18.780Z,97420.60
2018-12-21T17:12:47.615Z,97415.80
2018-12-21T17:15:17.166Z,97427.42
2018-12-21T17:17:45.643Z,97424.12
2018-12-21T17:20:14.171Z,97426.92
2018-12-21T17:22:42.715Z,97441.48
2018-12-21T17:25:13.830Z,97440.33
2018-12-21T17:27:42.429Z,97441.91
2018-12-21T17:30:12.505Z,97443.64
2018-12-21T17:32:40.964Z,97441.05
2018-12-21T17:35:10.490Z,97450.23
2018-12-21T17:37:40.912Z,97435.75
2018-12-21T17:40:11.432Z,97438.91
2018-12-21T17:42:39.930Z,97440.89
2018-12-21T17:45:11.095Z,97435.38
2018-12-21T17:47:39.669Z,97433.02
2018-12-21T17:50:10.038Z,97428.20
2018-12-21T17:52:39.074Z,97437.12
2018-12-21T17:55:09.141Z,97437.45
2018-12-21T17:57:37.657Z,97434.88
2018-12-21T18:00:14.869Z,97429.98
2018-12-21T18:02:44.567Z,97438.26
2018-12-21T18:05:13.148Z,97451.94
2018-12-21T18:07:41.732Z,97439.52
2018-12-21T18:10:11.350Z,97432.13
2018-12-21T18:12:40.322Z,97445.34
2018-12-21T18:15:10.085Z,97443.40
2018-12-21T18:17:38.618Z,97447.97
2018-12-21T18:20:10.738Z,97440.00
2018-12-21T18:22:39.398Z,97444.12
2018-12-21T18:25:14.318Z,97450.69
2018-12-21T18:27:44.209Z,97456.94
2018-12-21T18:30:17.784Z,97462.47
2018-12-21T18:32:46.568Z,97470.80
2018-12-21T18:35:19.530Z,97468.42
2018-12-21T18:37:58.915Z,97475.97
2018-12-21T18:40:28.391Z,97480.30
2018-12-21T18:42:57.498Z,97477.35
2018-12-21T18:45:26.043Z,97480.80
2018-12-21T18:47:54.562Z,97473.23
2018-12-21T18:50:24.083Z,97477.03
2018-12-21T18:52:52.606Z,97491.70
2018-12-21T18:55:21.609Z,97484.17
2018-12-21T18:57:50.112Z,97485.16
2018-12-21T19:00:19.589Z,97479.91
2018-12-21T19:02:48.162Z,97475.24
2018-12-21T19:05:16.723Z,97472.16
2018-12-21T19:07:45.389Z,97478.51
2018-12-21T19:10:14.108Z,97479.19
2018-12-21T19:12:42.687Z,97471.36
2018-12-21T19:15:12.104Z,97483.50
2018-12-21T19:17:41.470Z,97478.76
2018-12-21T19:20:11.761Z,97482.75
2018-12-21T19:22:40.685Z,97484.76
2018-12-21T19:25:10.986Z,97492.66
2018-12-21T19:27:39.548Z,97497.97
2018-12-21T19:30:10.890Z,97505.02
2018-12-21T19:32:40.911Z,97510.26
2018-12-21T19:35:10.522Z,97528.36
2018-12-21T19:37:38.985Z,97524.69
2018-12-21T19:40:09.384Z,97519.45
2018-12-21T19:42:38.633Z,97534.45
2018-12-21T19:45:09.449Z,97534.89
2018-12-21T19:47:39.127Z,97533.52
2018-12-21T19:50:09.770Z,97536.76
2018-12-21T19:52:38.401Z,97522.71
2018-12-21T19:55:18.874Z,97525.52
2018-12-21T19:57:47.562Z,97532.34
2018-12-21T20:00:16.550Z,97533.56
2018-12-21T20:02:45.342Z,97540.97
2018-12-21T20:05:13.948Z,97546.64
2018-12-21T20:07:42.701Z,97552.24
2018-12-21T20:10:13.477Z,97555.98
2018-12-21T20:12:42.726Z,97545.48
2018-12-21T20:15:12.139Z,97563.23
2018-12-21T20:17:41.004Z,97558.99
2018-12-21T20:20:10.830Z,97563.34
2018-12-21T20:22:39.394Z,97548.22
2018-12-21T20:25:09.637Z,97541.83
2018-12-21T20:27:38.870Z,97540.89
2018-12-21T20:30:10.035Z,97543.91
2018-12-21T20:32:39.269Z,97540.67
2018-12-21T20:35:08.696Z,97539.67
2018-12-21T20:37:39.435Z,97548.22
2018-12-21T20:40:10.505Z,97532.98
2018-12-21T20:42:39.849Z,97537.30
2018-12-21T20:45:09.974Z,97536.87
2018-12-21T20:47:38.669Z,97538.66
2018-12-21T20:50:10.843Z,97536.80
2018-12-21T20:52:39.444Z,97542.39
2018-12-21T20:55:09.035Z,97547.07
2018-12-21T20:57:38.157Z,97524.50
2018-12-21T21:00:10.814Z,97533.55
2018-12-21T21:02:39.358Z,97542.89
2018-12-21T21:05:08.824Z,97542.39
2018-12-21T21:07:37.717Z,97535.29
2018-12-21T21:10:10.398Z,97533.84
2018-12-21T21:12:49.365Z,97534.70
2018-12-21T21:15:18.562Z,97534.70
2018-12-21T21:17:47.885Z,97534.34
2018-12-21T21:20:16.759Z,97539.56
2018-12-21T21:22:47.082Z,97548.86
2018-12-21T21:25:16.755Z,97545.59
2018-12-21T21:27:45.833Z,97555.51
2018-12-21T21:30:17.295Z,97553.81
2018-12-21T21:32:45.867Z,97563.73
2018-12-21T21:35:14.412Z,97562.37
2018-12-21T21:37:43.420Z,97562.09
2018-12-21T21:40:15.441Z,97566.18
2018-12-21T21:42:44.068Z,97561.90
2018-12-21T21:45:12.713Z,97558.84
2018-12-21T21:47:41.466Z,97567.90
2018-12-21T21:50:10.884Z,97563.34
2018-12-21T21:52:39.716Z,97566.64
2018-12-21T21:55:08.264Z,97575.30
2018-12-21T21:57:39.547Z,97571.06
2018-12-21T22:00:11.406Z,97571.23
2018-12-21T22:02:40.044Z,97570.95
2018-12-21T22:05:08.970Z,97580.94
2018-12-21T22:07:37.498Z,97577.27
2018-12-21T22:10:08.592Z,97580.78
2018-12-21T22:12:37.127Z,97584.69
2018-12-21T22:15:06.267Z,97591.90
2018-12-21T22:17:34.746Z,97590.75
2018-12-21T22:20:03.401Z,97592.26
2018-12-21T22:22:32.334Z,97590.06
2018-12-21T22:25:00.819Z,97589.62
2018-12-21T22:27:29.394Z,97591.83
2018-12-21T22:29:57.899Z,97596.50
2018-12-21T22:32:26.511Z,97598.73
2018-12-21T22:34:55.408Z,97594.22
2018-12-21T22:37:24.242Z,97597.09
2018-12-21T22:39:52.710Z,97588.41
2018-12-21T22:42:21.337Z,97591.03
2018-12-21T22:44:49.923Z,97587.69
2018-12-21T22:47:18.433Z,97598.03
2018-12-21T22:49:46.935Z,97594.16
2018-12-21T22:52:15.525Z,97594.17
2018-12-21T22:54:44.488Z,97600.76
2018-12-21T22:57:13.003Z,97608.35
2018-12-21T22:59:41.549Z,97597.04
2018-12-21T23:02:10.022Z,97603.41
2018-12-21T23:04:39.586Z,97608.48
2018-12-21T23:07:08.534Z,97614.41
2018-12-21T23:09:37.041Z,97609.88
2018-12-21T23:12:05.526Z,97610.25
2018-12-21T23:14:33.990Z,97604.69
2018-12-21T23:17:02.647Z,97606.78
2018-12-21T23:19:31.171Z,97605.44
2018-12-21T23:21:59.824Z,97609.64
2018-12-21T23:24:28.288Z,97611.02
2018-12-21T23:26:56.878Z,97612.66
2018-12-21T23:29:25.588Z,97609.50
2018-12-21T23:31:54.085Z,97607.13
2018-12-21T23:34:22.545Z,97617.50
2018-12-21T23:36:51.183Z,97610.58
2018-12-21T23:39:19.631Z,97623.44
2018-12-21T23:41:48.229Z,97623.66
2018-12-21T23:44:16.861Z,97631.98
2018-12-21T23:46:45.986Z,97626.12
2018-12-21T23:49:14.525Z,97622.89
2018-12-21T23:51:43.184Z,97625.82
2018-12-21T23:54:11.767Z,97618.00
2018-12-21T23:56:40.714Z,97620.58
2018-12-21T23:59:09.934Z,97629.42
